sensor_id;sensor_type;location;lat;lon;timestamp;temperature;humidity
75210;DHT22;63796;53.136;14.882;2023-05-10T00:00:26;10.70;99.90
75210;DHT22;63796;53.136;14.882;2023-05-10T00:03:08;10.70;99.90
75210;DHT22;63796;53.136;14.882;2023-05-10T00:05:36;10.70;99.90
75210;DHT22;63796;53.136;14.882;2023-05-10T00:08:03;10.70;99.90
75210;DHT22;63796;53.136;14.882;2023-05-10T00:10:30;10.60;99.90
75210;DHT22;63796;53.136;14.882;2023-05-10T00:12:58;10.60;99.90
75210;DHT22;63796;53.136;14.882;2023-05-10T00:15:25;10.50;99.90
75210;DHT22;63796;53.136;14.882;2023-05-10T00:17:52;10.50;99.90
75210;DHT22;63796;53.136;14.882;2023-05-10T00:20:20;10.50;99.90
75210;DHT22;63796;53.136;14.882;2023-05-10T00:22:47;10.40;99.90
75210;DHT22;63796;53.136;14.882;2023-05-10T00:25:14;10.40;99.90
75210;DHT22;63796;53.136;14.882;2023-05-10T00:27:42;10.40;99.90
75210;DHT22;63796;53.136;14.882;2023-05-10T00:30:09;10.30;99.90
75210;DHT22;63796;53.136;14.882;2023-05-10T00:32:37;10.30;99.90
75210;DHT22;63796;53.136;14.882;2023-05-10T00:35:05;10.20;99.90
75210;DHT22;63796;53.136;14.882;2023-05-10T00:37:32;10.20;99.90
75210;DHT22;63796;53.136;14.882;2023-05-10T00:39:59;10.10;99.90
75210;DHT22;63796;53.136;14.882;2023-05-10T00:42:27;10.10;99.90
75210;DHT22;63796;53.136;14.882;2023-05-10T00:44:54;10.00;99.90
75210;DHT22;63796;53.136;14.882;2023-05-10T00:47:22;10.00;99.90
75210;DHT22;63796;53.136;14.882;2023-05-10T00:49:50;9.90;99.90
75210;DHT22;63796;53.136;14.882;2023-05-10T00:52:17;9.90;99.90
75210;DHT22;63796;53.136;14.882;2023-05-10T00:54:44;9.90;99.90
75210;DHT22;63796;53.136;14.882;2023-05-10T00:57:13;9.80;99.90
75210;DHT22;63796;53.136;14.882;2023-05-10T00:59:40;9.80;99.90
75210;DHT22;63796;53.136;14.882;2023-05-10T01:02:08;9.80;99.90
75210;DHT22;63796;53.136;14.882;2023-05-10T01:04:35;9.80;99.90
75210;DHT22;63796;53.136;14.882;2023-05-10T01:07:04;9.80;99.90
75210;DHT22;63796;53.136;14.882;2023-05-10T01:09:32;9.70;99.90
75210;DHT22;63796;53.136;14.882;2023-05-10T01:12:00;9.70;99.90
75210;DHT22;63796;53.136;14.882;2023-05-10T01:14:28;9.70;99.90
75210;DHT22;63796;53.136;14.882;2023-05-10T01:16:56;9.70;99.90
75210;DHT22;63796;53.136;14.882;2023-05-10T01:19:27;9.60;99.90
75210;DHT22;63796;53.136;14.882;2023-05-10T01:27:43;9.50;99.90
75210;DHT22;63796;53.136;14.882;2023-05-10T01:44:35;9.30;99.90
75210;DHT22;63796;53.136;14.882;2023-05-10T01:47:14;9.30;99.90
75210;DHT22;63796;53.136;14.882;2023-05-10T01:49:50;9.20;99.90
75210;DHT22;63796;53.136;14.882;2023-05-10T01:52:31;9.20;99.90
75210;DHT22;63796;53.136;14.882;2023-05-10T01:55:07;9.10;99.90
75210;DHT22;63796;53.136;14.882;2023-05-10T01:57:36;9.10;99.90
75210;DHT22;63796;53.136;14.882;2023-05-10T02:00:09;9.20;99.90
75210;DHT22;63796;53.136;14.882;2023-05-10T02:02:38;9.10;99.90
75210;DHT22;63796;53.136;14.882;2023-05-10T02:05:09;9.10;99.90
75210;DHT22;63796;53.136;14.882;2023-05-10T02:07:39;9.10;99.90
75210;DHT22;63796;53.136;14.882;2023-05-10T02:10:09;9.10;99.90
75210;DHT22;63796;53.136;14.882;2023-05-10T02:12:43;9.10;99.90
75210;DHT22;63796;53.136;14.882;2023-05-10T02:15:16;9.00;99.90
75210;DHT22;63796;53.136;14.882;2023-05-10T02:17:48;9.10;99.90
75210;DHT22;63796;53.136;14.882;2023-05-10T02:20:16;9.00;99.90
75210;DHT22;63796;53.136;14.882;2023-05-10T02:22:46;9.00;99.90
75210;DHT22;63796;53.136;14.882;2023-05-10T02:25:17;9.00;99.90
75210;DHT22;63796;53.136;14.882;2023-05-10T02:27:46;9.00;99.90
75210;DHT22;63796;53.136;14.882;2023-05-10T02:30:15;9.00;99.90
75210;DHT22;63796;53.136;14.882;2023-05-10T02:32:44;8.90;99.90
75210;DHT22;63796;53.136;14.882;2023-05-10T02:35:13;8.90;99.90
75210;DHT22;63796;53.136;14.882;2023-05-10T02:37:41;8.90;99.90
75210;DHT22;63796;53.136;14.882;2023-05-10T02:40:12;8.90;99.90
75210;DHT22;63796;53.136;14.882;2023-05-10T02:42:41;8.90;99.90
75210;DHT22;63796;53.136;14.882;2023-05-10T02:45:12;8.90;99.90
75210;DHT22;63796;53.136;14.882;2023-05-10T02:47:41;8.80;99.90
75210;DHT22;63796;53.136;14.882;2023-05-10T02:50:10;8.80;99.90
75210;DHT22;63796;53.136;14.882;2023-05-10T02:52:46;8.80;99.90
75210;DHT22;63796;53.136;14.882;2023-05-10T02:55:15;8.80;99.90
75210;DHT22;63796;53.136;14.882;2023-05-10T02:57:48;8.70;99.90
75210;DHT22;63796;53.136;14.882;2023-05-10T03:00:19;8.70;99.90
75210;DHT22;63796;53.136;14.882;2023-05-10T03:02:46;8.70;99.90
75210;DHT22;63796;53.136;14.882;2023-05-10T03:05:14;8.70;99.90
75210;DHT22;63796;53.136;14.882;2023-05-10T03:07:41;8.60;99.90
75210;DHT22;63796;53.136;14.882;2023-05-10T03:10:09;8.60;99.90
75210;DHT22;63796;53.136;14.882;2023-05-10T03:16:04;8.60;99.90
75210;DHT22;63796;53.136;14.882;2023-05-10T03:19:22;8.60;99.90
75210;DHT22;63796;53.136;14.882;2023-05-10T03:21:28;8.50;99.90
75210;DHT22;63796;53.136;14.882;2023-05-10T03:24:05;8.50;99.90
75210;DHT22;63796;53.136;14.882;2023-05-10T03:26:34;8.50;99.90
75210;DHT22;63796;53.136;14.882;2023-05-10T03:29:04;8.50;99.90
75210;DHT22;63796;53.136;14.882;2023-05-10T03:31:33;8.50;99.90
75210;DHT22;63796;53.136;14.882;2023-05-10T03:34:00;8.40;99.90
75210;DHT22;63796;53.136;14.882;2023-05-10T03:36:28;8.40;99.90
75210;DHT22;63796;53.136;14.882;2023-05-10T03:38:55;8.30;99.90
75210;DHT22;63796;53.136;14.882;2023-05-10T03:41:22;8.30;99.90
75210;DHT22;63796;53.136;14.882;2023-05-10T03:43:50;8.40;99.90
75210;DHT22;63796;53.136;14.882;2023-05-10T03:46:17;8.40;99.90
75210;DHT22;63796;53.136;14.882;2023-05-10T03:48:45;8.40;99.90
75210;DHT22;63796;53.136;14.882;2023-05-10T03:51:12;8.40;99.90
75210;DHT22;63796;53.136;14.882;2023-05-10T03:53:39;8.40;99.90
75210;DHT22;63796;53.136;14.882;2023-05-10T03:56:07;8.40;99.90
75210;DHT22;63796;53.136;14.882;2023-05-10T03:58:34;8.50;99.90
75210;DHT22;63796;53.136;14.882;2023-05-10T04:01:01;8.60;99.90
75210;DHT22;63796;53.136;14.882;2023-05-10T04:03:29;8.60;99.90
75210;DHT22;63796;53.136;14.882;2023-05-10T04:05:59;8.70;99.90
75210;DHT22;63796;53.136;14.882;2023-05-10T04:08:28;8.70;99.90
75210;DHT22;63796;53.136;14.882;2023-05-10T04:11:09;8.90;99.90
75210;DHT22;63796;53.136;14.882;2023-05-10T04:13:37;8.90;99.90
75210;DHT22;63796;53.136;14.882;2023-05-10T04:16:05;9.00;99.90
75210;DHT22;63796;53.136;14.882;2023-05-10T04:18:32;9.10;99.90
75210;DHT22;63796;53.136;14.882;2023-05-10T04:21:03;9.20;99.90
75210;DHT22;63796;53.136;14.882;2023-05-10T04:23:30;9.30;99.90
75210;DHT22;63796;53.136;14.882;2023-05-10T04:26:01;9.40;99.90
75210;DHT22;63796;53.136;14.882;2023-05-10T04:28:28;9.50;99.90
75210;DHT22;63796;53.136;14.882;2023-05-10T04:31:06;9.60;99.90
75210;DHT22;63796;53.136;14.882;2023-05-10T04:33:35;9.70;99.90
75210;DHT22;63796;53.136;14.882;2023-05-10T04:36:03;9.80;99.90
75210;DHT22;63796;53.136;14.882;2023-05-10T04:38:30;10.00;99.90
75210;DHT22;63796;53.136;14.882;2023-05-10T04:41:07;10.40;99.90
75210;DHT22;63796;53.136;14.882;2023-05-10T04:43:36;11.50;99.90
75210;DHT22;63796;53.136;14.882;2023-05-10T04:46:04;12.50;99.90
75210;DHT22;63796;53.136;14.882;2023-05-10T04:48:32;13.30;99.90
75210;DHT22;63796;53.136;14.882;2023-05-10T04:51:00;14.20;99.90
75210;DHT22;63796;53.136;14.882;2023-05-10T04:53:28;13.60;99.90
75210;DHT22;63796;53.136;14.882;2023-05-10T04:55:55;14.00;99.90
75210;DHT22;63796;53.136;14.882;2023-05-10T04:58:22;13.80;99.90
75210;DHT22;63796;53.136;14.882;2023-05-10T05:00:49;14.90;99.90
75210;DHT22;63796;53.136;14.882;2023-05-10T05:03:17;14.90;99.90
75210;DHT22;63796;53.136;14.882;2023-05-10T05:05:45;14.20;99.90
75210;DHT22;63796;53.136;14.882;2023-05-10T05:08:12;14.70;99.90
75210;DHT22;63796;53.136;14.882;2023-05-10T05:10:40;14.80;99.90
75210;DHT22;63796;53.136;14.882;2023-05-10T05:13:07;14.30;99.90
75210;DHT22;63796;53.136;14.882;2023-05-10T05:15:34;13.70;99.90
75210;DHT22;63796;53.136;14.882;2023-05-10T05:18:02;12.40;99.90
75210;DHT22;63796;53.136;14.882;2023-05-10T05:20:31;11.70;99.90
75210;DHT22;63796;53.136;14.882;2023-05-10T05:23:00;11.80;99.90
75210;DHT22;63796;53.136;14.882;2023-05-10T05:25:28;11.80;99.90
75210;DHT22;63796;53.136;14.882;2023-05-10T05:27:55;12.10;99.90
75210;DHT22;63796;53.136;14.882;2023-05-10T05:30:23;12.20;99.90
75210;DHT22;63796;53.136;14.882;2023-05-10T05:32:51;12.30;99.90
75210;DHT22;63796;53.136;14.882;2023-05-10T05:35:19;12.30;99.90
75210;DHT22;63796;53.136;14.882;2023-05-10T05:37:46;12.70;99.90
75210;DHT22;63796;53.136;14.882;2023-05-10T05:40:14;12.70;99.90
75210;DHT22;63796;53.136;14.882;2023-05-10T05:42:41;13.10;99.90
75210;DHT22;63796;53.136;14.882;2023-05-10T05:45:09;13.30;99.90
75210;DHT22;63796;53.136;14.882;2023-05-10T05:47:40;13.60;99.90
75210;DHT22;63796;53.136;14.882;2023-05-10T05:50:07;13.70;99.90
75210;DHT22;63796;53.136;14.882;2023-05-10T05:52:35;13.80;99.90
75210;DHT22;63796;53.136;14.882;2023-05-10T05:55:03;14.80;99.90
75210;DHT22;63796;53.136;14.882;2023-05-10T05:57:30;16.60;99.90
75210;DHT22;63796;53.136;14.882;2023-05-10T05:59:58;17.20;99.80
75210;DHT22;63796;53.136;14.882;2023-05-10T06:02:26;16.60;99.90
75210;DHT22;63796;53.136;14.882;2023-05-10T06:04:53;18.50;97.20
75210;DHT22;63796;53.136;14.882;2023-05-10T06:07:21;18.80;94.90
75210;DHT22;63796;53.136;14.882;2023-05-10T06:09:48;19.00;93.00
75210;DHT22;63796;53.136;14.882;2023-05-10T06:12:15;19.20;92.80
75210;DHT22;63796;53.136;14.882;2023-05-10T06:14:43;16.00;98.60
75210;DHT22;63796;53.136;14.882;2023-05-10T06:17:11;14.90;99.90
75210;DHT22;63796;53.136;14.882;2023-05-10T06:19:38;14.90;99.90
75210;DHT22;63796;53.136;14.882;2023-05-10T06:22:05;14.70;99.90
75210;DHT22;63796;53.136;14.882;2023-05-10T06:24:33;14.90;99.90
75210;DHT22;63796;53.136;14.882;2023-05-10T06:27:00;15.10;99.90
75210;DHT22;63796;53.136;14.882;2023-05-10T06:29:28;15.20;99.90
75210;DHT22;63796;53.136;14.882;2023-05-10T06:31:56;15.20;99.90
75210;DHT22;63796;53.136;14.882;2023-05-10T06:34:23;16.10;99.90
75210;DHT22;63796;53.136;14.882;2023-05-10T06:36:51;16.40;99.90
75210;DHT22;63796;53.136;14.882;2023-05-10T06:39:18;17.00;99.90
75210;DHT22;63796;53.136;14.882;2023-05-10T06:41:46;17.00;99.80
75210;DHT22;63796;53.136;14.882;2023-05-10T06:44:13;17.30;99.90
75210;DHT22;63796;53.136;14.882;2023-05-10T06:46:41;16.90;99.30
75210;DHT22;63796;53.136;14.882;2023-05-10T06:49:09;17.50;98.30
75210;DHT22;63796;53.136;14.882;2023-05-10T06:51:36;16.90;98.40
75210;DHT22;63796;53.136;14.882;2023-05-10T06:54:04;16.60;97.90
75210;DHT22;63796;53.136;14.882;2023-05-10T06:56:31;17.30;97.80
75210;DHT22;63796;53.136;14.882;2023-05-10T06:58:58;17.90;96.20
75210;DHT22;63796;53.136;14.882;2023-05-10T07:01:26;18.60;94.50
75210;DHT22;63796;53.136;14.882;2023-05-10T07:03:53;19.30;92.80
75210;DHT22;63796;53.136;14.882;2023-05-10T07:06:20;19.50;91.60
75210;DHT22;63796;53.136;14.882;2023-05-10T07:08:59;19.30;91.40
75210;DHT22;63796;53.136;14.882;2023-05-10T07:11:27;19.90;90.10
75210;DHT22;63796;53.136;14.882;2023-05-10T07:13:54;21.70;85.30
75210;DHT22;63796;53.136;14.882;2023-05-10T07:16:21;21.00;84.00
75210;DHT22;63796;53.136;14.882;2023-05-10T07:18:49;20.50;84.30
75210;DHT22;63796;53.136;14.882;2023-05-10T07:21:17;21.60;82.10
75210;DHT22;63796;53.136;14.882;2023-05-10T07:23:45;21.10;81.20
75210;DHT22;63796;53.136;14.882;2023-05-10T07:26:12;21.70;81.00
75210;DHT22;63796;53.136;14.882;2023-05-10T07:28:41;22.40;78.80
75210;DHT22;63796;53.136;14.882;2023-05-10T07:31:09;22.50;78.30
75210;DHT22;63796;53.136;14.882;2023-05-10T07:33:36;21.70;78.10
75210;DHT22;63796;53.136;14.882;2023-05-10T07:36:03;22.00;77.70
75210;DHT22;63796;53.136;14.882;2023-05-10T07:38:31;22.50;74.70
75210;DHT22;63796;53.136;14.882;2023-05-10T07:40:58;23.00;75.40
75210;DHT22;63796;53.136;14.882;2023-05-10T07:43:25;22.80;75.40
75210;DHT22;63796;53.136;14.882;2023-05-10T07:45:53;22.10;75.30
75210;DHT22;63796;53.136;14.882;2023-05-10T07:48:22;23.00;73.70
75210;DHT22;63796;53.136;14.882;2023-05-10T07:50:49;24.60;71.20
75210;DHT22;63796;53.136;14.882;2023-05-10T07:53:17;23.90;71.80
75210;DHT22;63796;53.136;14.882;2023-05-10T07:55:56;24.50;71.00
75210;DHT22;63796;53.136;14.882;2023-05-10T07:58:25;23.90;69.90
75210;DHT22;63796;53.136;14.882;2023-05-10T08:00:52;22.90;72.40
75210;DHT22;63796;53.136;14.882;2023-05-10T08:03:19;23.20;72.70
75210;DHT22;63796;53.136;14.882;2023-05-10T08:05:47;23.00;72.10
75210;DHT22;63796;53.136;14.882;2023-05-10T08:08:14;24.30;70.10
75210;DHT22;63796;53.136;14.882;2023-05-10T08:10:41;25.50;66.40
75210;DHT22;63796;53.136;14.882;2023-05-10T08:13:09;23.80;70.60
75210;DHT22;63796;53.136;14.882;2023-05-10T08:15:36;23.10;69.60
75210;DHT22;63796;53.136;14.882;2023-05-10T08:18:03;24.00;70.60
75210;DHT22;63796;53.136;14.882;2023-05-10T08:20:31;23.50;70.00
75210;DHT22;63796;53.136;14.882;2023-05-10T08:22:58;24.20;68.40
75210;DHT22;63796;53.136;14.882;2023-05-10T08:25:25;25.20;67.50
75210;DHT22;63796;53.136;14.882;2023-05-10T08:27:53;25.10;68.40
75210;DHT22;63796;53.136;14.882;2023-05-10T08:30:20;25.70;64.50
75210;DHT22;63796;53.136;14.882;2023-05-10T08:32:47;25.80;66.60
75210;DHT22;63796;53.136;14.882;2023-05-10T08:35:15;25.20;68.20
75210;DHT22;63796;53.136;14.882;2023-05-10T08:37:43;26.30;65.50
75210;DHT22;63796;53.136;14.882;2023-05-10T08:40:11;26.90;62.90
75210;DHT22;63796;53.136;14.882;2023-05-10T08:42:39;25.80;66.30
75210;DHT22;63796;53.136;14.882;2023-05-10T08:45:10;26.00;64.90
75210;DHT22;63796;53.136;14.882;2023-05-10T08:47:38;27.30;64.00
75210;DHT22;63796;53.136;14.882;2023-05-10T08:50:06;27.00;62.00
75210;DHT22;63796;53.136;14.882;2023-05-10T08:52:34;25.30;65.40
75210;DHT22;63796;53.136;14.882;2023-05-10T08:55:07;25.10;64.80
75210;DHT22;63796;53.136;14.882;2023-05-10T08:57:35;25.20;63.40
75210;DHT22;63796;53.136;14.882;2023-05-10T09:00:03;25.20;63.20
75210;DHT22;63796;53.136;14.882;2023-05-10T09:02:30;25.40;61.40
75210;DHT22;63796;53.136;14.882;2023-05-10T09:04:58;24.80;62.30
75210;DHT22;63796;53.136;14.882;2023-05-10T09:07:25;24.60;61.30
75210;DHT22;63796;53.136;14.882;2023-05-10T09:09:53;25.70;59.70
75210;DHT22;63796;53.136;14.882;2023-05-10T09:12:21;25.10;62.20
75210;DHT22;63796;53.136;14.882;2023-05-10T09:14:49;25.00;61.00
75210;DHT22;63796;53.136;14.882;2023-05-10T09:17:18;25.30;61.80
75210;DHT22;63796;53.136;14.882;2023-05-10T09:19:47;25.20;59.80
75210;DHT22;63796;53.136;14.882;2023-05-10T09:22:14;25.70;61.80
75210;DHT22;63796;53.136;14.882;2023-05-10T09:24:42;24.30;61.10
75210;DHT22;63796;53.136;14.882;2023-05-10T09:27:12;23.70;63.10
75210;DHT22;63796;53.136;14.882;2023-05-10T09:29:39;23.90;62.60
75210;DHT22;63796;53.136;14.882;2023-05-10T09:32:08;25.40;60.40
75210;DHT22;63796;53.136;14.882;2023-05-10T09:34:35;25.50;60.00
75210;DHT22;63796;53.136;14.882;2023-05-10T09:37:06;25.80;59.50
75210;DHT22;63796;53.136;14.882;2023-05-10T09:39:38;26.50;58.70
75210;DHT22;63796;53.136;14.882;2023-05-10T09:42:06;25.70;59.60
75210;DHT22;63796;53.136;14.882;2023-05-10T09:44:36;26.30;58.80
75210;DHT22;63796;53.136;14.882;2023-05-10T09:47:05;26.80;58.50
75210;DHT22;63796;53.136;14.882;2023-05-10T09:49:32;27.40;59.80
75210;DHT22;63796;53.136;14.882;2023-05-10T09:54:28;26.50;57.60
75210;DHT22;63796;53.136;14.882;2023-05-10T09:56:56;26.40;59.60
75210;DHT22;63796;53.136;14.882;2023-05-10T09:59:26;26.60;58.70
75210;DHT22;63796;53.136;14.882;2023-05-10T10:01:58;26.40;60.40
75210;DHT22;63796;53.136;14.882;2023-05-10T10:04:27;27.90;58.20
75210;DHT22;63796;53.136;14.882;2023-05-10T10:07:01;28.70;57.40
75210;DHT22;63796;53.136;14.882;2023-05-10T10:09:31;26.90;59.70
75210;DHT22;63796;53.136;14.882;2023-05-10T10:12:01;27.10;57.40
75210;DHT22;63796;53.136;14.882;2023-05-10T10:14:29;26.50;57.70
75210;DHT22;63796;53.136;14.882;2023-05-10T10:16:56;29.00;56.60
75210;DHT22;63796;53.136;14.882;2023-05-10T10:19:34;26.40;58.70
75210;DHT22;63796;53.136;14.882;2023-05-10T10:22:03;26.80;59.30
75210;DHT22;63796;53.136;14.882;2023-05-10T10:24:31;27.70;57.60
75210;DHT22;63796;53.136;14.882;2023-05-10T10:27:04;28.10;57.20
75210;DHT22;63796;53.136;14.882;2023-05-10T10:29:51;27.30;56.20
75210;DHT22;63796;53.136;14.882;2023-05-10T10:32:38;28.10;56.20
75210;DHT22;63796;53.136;14.882;2023-05-10T10:35:22;27.40;57.20
75210;DHT22;63796;53.136;14.882;2023-05-10T10:37:50;27.10;57.10
75210;DHT22;63796;53.136;14.882;2023-05-10T10:40:26;28.00;55.90
75210;DHT22;63796;53.136;14.882;2023-05-10T10:42:54;28.20;54.80
75210;DHT22;63796;53.136;14.882;2023-05-10T10:45:23;27.00;54.80
75210;DHT22;63796;53.136;14.882;2023-05-10T10:50:56;27.70;57.60
75210;DHT22;63796;53.136;14.882;2023-05-10T10:53:27;27.00;55.20
75210;DHT22;63796;53.136;14.882;2023-05-10T10:56:11;28.10;55.70
75210;DHT22;63796;53.136;14.882;2023-05-10T10:58:40;28.30;54.90
75210;DHT22;63796;53.136;14.882;2023-05-10T11:01:15;27.10;54.40
75210;DHT22;63796;53.136;14.882;2023-05-10T11:06:32;26.30;55.90
75210;DHT22;63796;53.136;14.882;2023-05-10T11:09:05;26.50;55.70
75210;DHT22;63796;53.136;14.882;2023-05-10T11:11:34;26.60;57.20
75210;DHT22;63796;53.136;14.882;2023-05-10T11:14:06;26.20;55.70
75210;DHT22;63796;53.136;14.882;2023-05-10T11:16:41;25.70;56.90
75210;DHT22;63796;53.136;14.882;2023-05-10T11:19:10;25.00;57.40
75210;DHT22;63796;53.136;14.882;2023-05-10T11:21:46;25.90;56.50
75210;DHT22;63796;53.136;14.882;2023-05-10T11:24:17;26.60;56.40
75210;DHT22;63796;53.136;14.882;2023-05-10T11:26:50;27.10;55.80
75210;DHT22;63796;53.136;14.882;2023-05-10T11:29:18;26.40;55.00
75210;DHT22;63796;53.136;14.882;2023-05-10T11:31:46;26.20;56.60
75210;DHT22;63796;53.136;14.882;2023-05-10T11:36:54;26.10;56.60
75210;DHT22;63796;53.136;14.882;2023-05-10T11:39:26;25.80;58.20
75210;DHT22;63796;53.136;14.882;2023-05-10T11:41:54;25.40;57.40
75210;DHT22;63796;53.136;14.882;2023-05-10T11:44:23;25.70;56.40
75210;DHT22;63796;53.136;14.882;2023-05-10T11:46:50;26.30;57.00
75210;DHT22;63796;53.136;14.882;2023-05-10T11:49:18;26.30;56.00
75210;DHT22;63796;53.136;14.882;2023-05-10T11:51:50;25.80;56.10
75210;DHT22;63796;53.136;14.882;2023-05-10T11:54:17;26.20;56.20
75210;DHT22;63796;53.136;14.882;2023-05-10T11:56:44;25.70;55.50
75210;DHT22;63796;53.136;14.882;2023-05-10T11:59:13;26.40;57.30
75210;DHT22;63796;53.136;14.882;2023-05-10T12:01:41;26.20;56.70
75210;DHT22;63796;53.136;14.882;2023-05-10T12:04:09;25.20;57.10
75210;DHT22;63796;53.136;14.882;2023-05-10T12:06:39;24.90;58.30
75210;DHT22;63796;53.136;14.882;2023-05-10T12:09:08;25.20;57.50
75210;DHT22;63796;53.136;14.882;2023-05-10T12:11:39;25.40;57.50
75210;DHT22;63796;53.136;14.882;2023-05-10T12:14:10;26.00;56.70
75210;DHT22;63796;53.136;14.882;2023-05-10T12:16:37;25.60;58.50
75210;DHT22;63796;53.136;14.882;2023-05-10T12:19:05;24.30;57.80
75210;DHT22;63796;53.136;14.882;2023-05-10T12:21:32;24.50;58.40
75210;DHT22;63796;53.136;14.882;2023-05-10T12:24:03;24.40;63.20
75210;DHT22;63796;53.136;14.882;2023-05-10T12:26:32;22.90;64.60
75210;DHT22;63796;53.136;14.882;2023-05-10T12:29:15;22.00;66.30
75210;DHT22;63796;53.136;14.882;2023-05-10T12:31:55;22.20;66.60
75210;DHT22;63796;53.136;14.882;2023-05-10T12:34:29;21.90;65.00
75210;DHT22;63796;53.136;14.882;2023-05-10T12:36:58;21.80;66.10
75210;DHT22;63796;53.136;14.882;2023-05-10T12:39:26;21.90;69.90
75210;DHT22;63796;53.136;14.882;2023-05-10T12:42:08;21.90;67.50
75210;DHT22;63796;53.136;14.882;2023-05-10T12:44:36;21.90;67.10
75210;DHT22;63796;53.136;14.882;2023-05-10T12:47:03;21.60;67.60
75210;DHT22;63796;53.136;14.882;2023-05-10T12:49:30;22.10;70.00
75210;DHT22;63796;53.136;14.882;2023-05-10T12:51:58;22.30;68.80
75210;DHT22;63796;53.136;14.882;2023-05-10T12:54:25;22.10;68.10
75210;DHT22;63796;53.136;14.882;2023-05-10T12:56:52;21.70;67.20
75210;DHT22;63796;53.136;14.882;2023-05-10T12:59:19;21.80;69.70
75210;DHT22;63796;53.136;14.882;2023-05-10T13:01:47;22.00;67.50
75210;DHT22;63796;53.136;14.882;2023-05-10T13:04:14;21.70;67.40
75210;DHT22;63796;53.136;14.882;2023-05-10T13:06:41;22.10;70.00
75210;DHT22;63796;53.136;14.882;2023-05-10T13:09:08;22.70;68.10
75210;DHT22;63796;53.136;14.882;2023-05-10T13:11:36;24.20;68.10
75210;DHT22;63796;53.136;14.882;2023-05-10T13:14:04;23.70;63.50
75210;DHT22;63796;53.136;14.882;2023-05-10T13:16:31;23.50;63.40
75210;DHT22;63796;53.136;14.882;2023-05-10T13:18:59;23.40;66.20
75210;DHT22;63796;53.136;14.882;2023-05-10T13:21:26;22.50;67.80
75210;DHT22;63796;53.136;14.882;2023-05-10T13:23:53;21.40;68.70
75210;DHT22;63796;53.136;14.882;2023-05-10T13:26:21;21.60;67.80
75210;DHT22;63796;53.136;14.882;2023-05-10T13:28:48;22.10;69.80
75210;DHT22;63796;53.136;14.882;2023-05-10T13:31:16;22.10;70.90
75210;DHT22;63796;53.136;14.882;2023-05-10T13:33:43;21.70;68.30
75210;DHT22;63796;53.136;14.882;2023-05-10T13:36:11;21.50;69.30
75210;DHT22;63796;53.136;14.882;2023-05-10T13:38:39;21.70;68.80
75210;DHT22;63796;53.136;14.882;2023-05-10T13:41:08;21.80;71.50
75210;DHT22;63796;53.136;14.882;2023-05-10T13:43:35;22.00;71.60
75210;DHT22;63796;53.136;14.882;2023-05-10T13:46:02;21.70;70.30
75210;DHT22;63796;53.136;14.882;2023-05-10T13:48:30;21.50;68.70
75210;DHT22;63796;53.136;14.882;2023-05-10T13:50:57;21.50;68.20
75210;DHT22;63796;53.136;14.882;2023-05-10T13:53:25;21.60;71.20
75210;DHT22;63796;53.136;14.882;2023-05-10T13:55:52;21.40;69.50
75210;DHT22;63796;53.136;14.882;2023-05-10T13:58:20;21.50;71.00
75210;DHT22;63796;53.136;14.882;2023-05-10T14:00:47;21.60;69.50
75210;DHT22;63796;53.136;14.882;2023-05-10T14:03:15;21.30;68.00
75210;DHT22;63796;53.136;14.882;2023-05-10T14:05:43;21.50;68.80
75210;DHT22;63796;53.136;14.882;2023-05-10T14:08:11;21.50;70.80
75210;DHT22;63796;53.136;14.882;2023-05-10T14:10:40;21.60;68.70
75210;DHT22;63796;53.136;14.882;2023-05-10T14:13:07;21.40;71.60
75210;DHT22;63796;53.136;14.882;2023-05-10T14:15:34;21.50;70.10
75210;DHT22;63796;53.136;14.882;2023-05-10T14:18:02;21.00;70.60
75210;DHT22;63796;53.136;14.882;2023-05-10T14:20:29;21.10;70.90
75210;DHT22;63796;53.136;14.882;2023-05-10T14:22:57;21.10;71.00
75210;DHT22;63796;53.136;14.882;2023-05-10T14:25:24;21.10;70.10
75210;DHT22;63796;53.136;14.882;2023-05-10T14:27:51;21.20;72.10
75210;DHT22;63796;53.136;14.882;2023-05-10T14:30:21;21.40;72.30
75210;DHT22;63796;53.136;14.882;2023-05-10T14:32:48;21.30;71.60
75210;DHT22;63796;53.136;14.882;2023-05-10T14:35:16;21.40;71.60
75210;DHT22;63796;53.136;14.882;2023-05-10T14:37:45;21.40;69.30
75210;DHT22;63796;53.136;14.882;2023-05-10T14:40:12;21.30;70.90
75210;DHT22;63796;53.136;14.882;2023-05-10T14:42:41;21.50;75.30
75210;DHT22;63796;53.136;14.882;2023-05-10T14:45:10;21.40;70.60
75210;DHT22;63796;53.136;14.882;2023-05-10T14:47:37;21.30;71.20
75210;DHT22;63796;53.136;14.882;2023-05-10T14:50:07;21.10;69.70
75210;DHT22;63796;53.136;14.882;2023-05-10T14:52:34;21.20;70.30
75210;DHT22;63796;53.136;14.882;2023-05-10T14:55:02;21.20;68.50
75210;DHT22;63796;53.136;14.882;2023-05-10T14:57:29;21.30;69.60
75210;DHT22;63796;53.136;14.882;2023-05-10T14:59:57;21.10;69.30
75210;DHT22;63796;53.136;14.882;2023-05-10T15:02:24;21.00;71.00
75210;DHT22;63796;53.136;14.882;2023-05-10T15:04:52;21.00;71.20
75210;DHT22;63796;53.136;14.882;2023-05-10T15:07:20;20.90;73.70
75210;DHT22;63796;53.136;14.882;2023-05-10T15:09:47;20.90;71.40
75210;DHT22;63796;53.136;14.882;2023-05-10T15:12:15;20.90;73.10
75210;DHT22;63796;53.136;14.882;2023-05-10T15:14:42;21.10;72.80
75210;DHT22;63796;53.136;14.882;2023-05-10T15:17:09;21.10;71.80
75210;DHT22;63796;53.136;14.882;2023-05-10T15:19:37;21.20;72.20
75210;DHT22;63796;53.136;14.882;2023-05-10T15:22:04;21.10;71.90
75210;DHT22;63796;53.136;14.882;2023-05-10T15:24:32;20.90;71.10
75210;DHT22;63796;53.136;14.882;2023-05-10T15:26:59;20.80;71.90
75210;DHT22;63796;53.136;14.882;2023-05-10T15:29:28;21.00;71.70
75210;DHT22;63796;53.136;14.882;2023-05-10T15:31:56;21.00;74.10
75210;DHT22;63796;53.136;14.882;2023-05-10T15:34:23;21.00;71.70
75210;DHT22;63796;53.136;14.882;2023-05-10T15:36:50;21.10;71.90
75210;DHT22;63796;53.136;14.882;2023-05-10T15:39:17;21.00;73.00
75210;DHT22;63796;53.136;14.882;2023-05-10T15:41:45;21.00;73.60
75210;DHT22;63796;53.136;14.882;2023-05-10T15:44:12;21.00;73.40
75210;DHT22;63796;53.136;14.882;2023-05-10T15:46:39;20.70;72.70
75210;DHT22;63796;53.136;14.882;2023-05-10T15:49:07;20.70;72.60
75210;DHT22;63796;53.136;14.882;2023-05-10T15:51:34;20.70;74.60
75210;DHT22;63796;53.136;14.882;2023-05-10T15:54:02;20.60;73.70
75210;DHT22;63796;53.136;14.882;2023-05-10T15:56:33;20.50;75.00
75210;DHT22;63796;53.136;14.882;2023-05-10T15:59:01;20.50;76.10
75210;DHT22;63796;53.136;14.882;2023-05-10T16:01:29;20.50;76.00
75210;DHT22;63796;53.136;14.882;2023-05-10T16:03:58;20.60;73.40